sensor_id;sensor_type;location;lat;lon;timestamp;P1;durP1;ratioP1;P2;durP2;ratioP2
49820;SDS011;36893;52.520;13.450;2023-02-28T00:07:38;1.10;;;0.53;;
49820;SDS011;36893;52.520;13.450;2023-02-28T00:17:39;0.90;;;0.52;;
49820;SDS011;36893;52.520;13.450;2023-02-28T00:27:40;1.57;;;0.87;;
49820;SDS011;36893;52.520;13.450;2023-02-28T00:37:41;0.57;;;0.45;;
49820;SDS011;36893;52.520;13.450;2023-02-28T00:47:43;0.65;;;0.40;;
49820;SDS011;36893;52.520;13.450;2023-02-28T00:57:44;2.60;;;0.40;;
49820;SDS011;36893;52.520;13.450;2023-02-28T01:07:44;1.67;;;0.47;;
49820;SDS011;36893;52.520;13.450;2023-02-28T01:17:45;1.60;;;0.67;;
49820;SDS011;36893;52.520;13.450;2023-02-28T01:27:46;0.40;;;0.30;;
49820;SDS011;36893;52.520;13.450;2023-02-28T01:37:46;1.07;;;0.47;;
49820;SDS011;36893;52.520;13.450;2023-02-28T01:47:48;0.30;;;0.30;;
49820;SDS011;36893;52.520;13.450;2023-02-28T01:57:53;1.25;;;0.30;;
49820;SDS011;36893;52.520;13.450;2023-02-28T02:08:00;0.55;;;0.30;;
49820;SDS011;36893;52.520;13.450;2023-02-28T02:39:31;1.83;;;0.70;;
49820;SDS011;36893;52.520;13.450;2023-02-28T02:49:52;0.60;;;0.47;;
49820;SDS011;36893;52.520;13.450;2023-02-28T02:59:55;0.30;;;0.30;;
49820;SDS011;36893;52.520;13.450;2023-02-28T03:09:57;1.42;;;0.52;;
49820;SDS011;36893;52.520;13.450;2023-02-28T03:20:05;2.60;;;0.73;;
49820;SDS011;36893;52.520;13.450;2023-02-28T03:30:39;0.63;;;0.40;;
49820;SDS011;36893;52.520;13.450;2023-02-28T03:40:57;2.97;;;0.50;;
49820;SDS011;36893;52.520;13.450;2023-02-28T03:51:06;0.82;;;0.50;;
49820;SDS011;36893;52.520;13.450;2023-02-28T04:01:12;1.05;;;0.63;;
49820;SDS011;36893;52.520;13.450;2023-02-28T04:21:38;0.52;;;0.47;;
49820;SDS011;36893;52.520;13.450;2023-02-28T04:31:44;0.43;;;0.30;;
49820;SDS011;36893;52.520;13.450;2023-02-28T04:41:45;1.33;;;0.63;;
49820;SDS011;36893;52.520;13.450;2023-02-28T04:51:46;1.00;;;0.50;;
49820;SDS011;36893;52.520;13.450;2023-02-28T05:01:47;1.17;;;0.75;;
49820;SDS011;36893;52.520;13.450;2023-02-28T05:11:49;1.45;;;0.65;;
49820;SDS011;36893;52.520;13.450;2023-02-28T05:21:51;2.20;;;1.47;;
49820;SDS011;36893;52.520;13.450;2023-02-28T05:31:54;0.43;;;0.38;;
49820;SDS011;36893;52.520;13.450;2023-02-28T05:41:54;0.97;;;0.50;;
49820;SDS011;36893;52.520;13.450;2023-02-28T05:51:55;2.17;;;0.77;;
49820;SDS011;36893;52.520;13.450;2023-02-28T06:01:55;1.67;;;0.57;;
49820;SDS011;36893;52.520;13.450;2023-02-28T06:12:00;1.43;;;0.60;;
49820;SDS011;36893;52.520;13.450;2023-02-28T06:22:05;0.25;;;0.22;;
49820;SDS011;36893;52.520;13.450;2023-02-28T06:32:06;3.10;;;1.00;;
49820;SDS011;36893;52.520;13.450;2023-02-28T06:42:06;0.73;;;0.63;;
49820;SDS011;36893;52.520;13.450;2023-02-28T06:52:07;0.40;;;0.27;;
49820;SDS011;36893;52.520;13.450;2023-02-28T07:02:09;1.95;;;1.30;;
49820;SDS011;36893;52.520;13.450;2023-02-28T07:12:10;1.17;;;0.93;;
49820;SDS011;36893;52.520;13.450;2023-02-28T07:22:10;0.73;;;0.63;;
49820;SDS011;36893;52.520;13.450;2023-02-28T07:32:11;10.15;;;2.42;;
49820;SDS011;36893;52.520;13.450;2023-02-28T07:42:12;1.43;;;0.87;;
49820;SDS011;36893;52.520;13.450;2023-02-28T07:52:12;2.87;;;1.20;;
49820;SDS011;36893;52.520;13.450;2023-02-28T08:02:17;4.97;;;1.03;;
49820;SDS011;36893;52.520;13.450;2023-02-28T08:12:18;3.53;;;1.13;;
49820;SDS011;36893;52.520;13.450;2023-02-28T08:22:19;2.55;;;1.17;;
49820;SDS011;36893;52.520;13.450;2023-02-28T08:32:20;8.17;;;2.63;;
49820;SDS011;36893;52.520;13.450;2023-02-28T08:42:21;2.33;;;1.17;;
49820;SDS011;36893;52.520;13.450;2023-02-28T08:52:21;1.60;;;1.00;;
49820;SDS011;36893;52.520;13.450;2023-02-28T09:02:22;1.83;;;1.07;;
49820;SDS011;36893;52.520;13.450;2023-02-28T09:12:23;2.87;;;1.00;;
49820;SDS011;36893;52.520;13.450;2023-02-28T09:22:25;1.80;;;0.93;;
49820;SDS011;36893;52.520;13.450;2023-02-28T09:32:26;2.77;;;0.97;;
49820;SDS011;36893;52.520;13.450;2023-02-28T09:42:29;2.22;;;0.90;;
49820;SDS011;36893;52.520;13.450;2023-02-28T09:52:34;3.92;;;1.42;;
49820;SDS011;36893;52.520;13.450;2023-02-28T10:12:47;1.27;;;0.80;;
49820;SDS011;36893;52.520;13.450;2023-02-28T10:33:33;5.05;;;1.27;;
49820;SDS011;36893;52.520;13.450;2023-02-28T10:43:35;1.48;;;0.82;;
49820;SDS011;36893;52.520;13.450;2023-02-28T10:53:48;2.35;;;0.95;;
49820;SDS011;36893;52.520;13.450;2023-02-28T11:03:51;0.65;;;0.65;;
49820;SDS011;36893;52.520;13.450;2023-02-28T11:13:54;9.63;;;1.00;;
49820;SDS011;36893;52.520;13.450;2023-02-28T11:24:15;3.92;;;1.55;;
49820;SDS011;36893;52.520;13.450;2023-02-28T11:34:27;3.97;;;1.00;;
49820;SDS011;36893;52.520;13.450;2023-02-28T11:44:31;3.53;;;1.20;;
49820;SDS011;36893;52.520;13.450;2023-02-28T11:55:14;3.40;;;1.35;;
49820;SDS011;36893;52.520;13.450;2023-02-28T12:05:29;3.63;;;1.05;;
49820;SDS011;36893;52.520;13.450;2023-02-28T12:15:50;3.15;;;1.35;;
49820;SDS011;36893;52.520;13.450;2023-02-28T12:26:08;6.35;;;1.70;;
49820;SDS011;36893;52.520;13.450;2023-02-28T12:36:16;3.50;;;1.10;;
49820;SDS011;36893;52.520;13.450;2023-02-28T12:46:27;2.58;;;1.08;;
49820;SDS011;36893;52.520;13.450;2023-02-28T12:56:37;1.08;;;0.65;;
49820;SDS011;36893;52.520;13.450;2023-02-28T13:07:06;6.45;;;0.85;;
49820;SDS011;36893;52.520;13.450;2023-02-28T13:17:36;2.05;;;0.77;;
49820;SDS011;36893;52.520;13.450;2023-02-28T13:27:38;10.88;;;1.40;;
49820;SDS011;36893;52.520;13.450;2023-02-28T13:37:44;4.15;;;1.02;;
49820;SDS011;36893;52.520;13.450;2023-02-28T13:47:58;8.90;;;1.15;;
49820;SDS011;36893;52.520;13.450;2023-02-28T13:58:09;2.10;;;1.10;;
49820;SDS011;36893;52.520;13.450;2023-02-28T14:08:34;5.32;;;1.13;;
49820;SDS011;36893;52.520;13.450;2023-02-28T14:18:35;2.05;;;1.00;;
49820;SDS011;36893;52.520;13.450;2023-02-28T14:28:44;2.55;;;1.33;;
49820;SDS011;36893;52.520;13.450;2023-02-28T14:38:57;3.05;;;1.17;;
49820;SDS011;36893;52.520;13.450;2023-02-28T14:49:05;2.25;;;0.98;;
49820;SDS011;36893;52.520;13.450;2023-02-28T14:59:26;1.55;;;0.80;;
49820;SDS011;36893;52.520;13.450;2023-02-28T15:09:30;1.30;;;0.70;;
49820;SDS011;36893;52.520;13.450;2023-02-28T15:19:32;1.13;;;0.70;;
49820;SDS011;36893;52.520;13.450;2023-02-28T15:29:41;0.82;;;0.50;;
49820;SDS011;36893;52.520;13.450;2023-02-28T15:39:47;1.80;;;0.70;;
49820;SDS011;36893;52.520;13.450;2023-02-28T15:49:52;3.37;;;0.50;;
49820;SDS011;36893;52.520;13.450;2023-02-28T16:00:02;4.43;;;1.25;;
49820;SDS011;36893;52.520;13.450;2023-02-28T16:10:06;2.38;;;0.60;;
49820;SDS011;36893;52.520;13.450;2023-02-28T16:20:15;1.20;;;0.83;;
49820;SDS011;36893;52.520;13.450;2023-02-28T16:30:30;0.98;;;0.50;;
49820;SDS011;36893;52.520;13.450;2023-02-28T16:40:33;0.77;;;0.40;;
49820;SDS011;36893;52.520;13.450;2023-02-28T16:50:35;1.13;;;0.65;;
49820;SDS011;36893;52.520;13.450;2023-02-28T17:00:36;4.53;;;0.73;;
49820;SDS011;36893;52.520;13.450;2023-02-28T17:10:37;1.17;;;0.60;;
49820;SDS011;36893;52.520;13.450;2023-02-28T17:20:37;2.43;;;0.70;;
49820;SDS011;36893;52.520;13.450;2023-02-28T17:30:38;4.27;;;1.03;;
49820;SDS011;36893;52.520;13.450;2023-02-28T17:40:40;2.75;;;1.23;;
49820;SDS011;36893;52.520;13.450;2023-02-28T17:50:41;6.80;;;1.00;;
49820;SDS011;36893;52.520;13.450;2023-02-28T18:00:42;28.58;;;6.70;;
49820;SDS011;36893;52.520;13.450;2023-02-28T18:10:42;56.27;;;19.37;;
49820;SDS011;36893;52.520;13.450;2023-02-28T18:20:43;86.27;;;28.33;;
49820;SDS011;36893;52.520;13.450;2023-02-28T18:30:45;96.72;;;31.50;;
49820;SDS011;36893;52.520;13.450;2023-02-28T18:40:52;86.70;;;27.20;;
49820;SDS011;36893;52.520;13.450;2023-02-28T18:50:56;83.13;;;26.42;;
49820;SDS011;36893;52.520;13.450;2023-02-28T19:00:56;68.33;;;24.80;;
49820;SDS011;36893;52.520;13.450;2023-02-28T19:10:57;75.50;;;19.90;;
49820;SDS011;36893;52.520;13.450;2023-02-28T19:20:58;59.17;;;20.03;;
49820;SDS011;36893;52.520;13.450;2023-02-28T19:30:58;74.93;;;20.05;;
49820;SDS011;36893;52.520;13.450;2023-02-28T19:41:00;62.33;;;19.63;;
49820;SDS011;36893;52.520;13.450;2023-02-28T19:51:03;51.50;;;15.57;;
49820;SDS011;36893;52.520;13.450;2023-02-28T20:01:16;49.33;;;15.55;;
49820;SDS011;36893;52.520;13.450;2023-02-28T20:11:18;54.65;;;14.68;;
49820;SDS011;36893;52.520;13.450;2023-02-28T20:21:18;43.23;;;14.53;;
49820;SDS011;36893;52.520;13.450;2023-02-28T20:31:21;46.80;;;12.70;;
49820;SDS011;36893;52.520;13.450;2023-02-28T20:41:24;38.72;;;10.77;;
49820;SDS011;36893;52.520;13.450;2023-02-28T20:51:25;35.90;;;11.00;;
49820;SDS011;36893;52.520;13.450;2023-02-28T21:01:26;34.87;;;10.77;;
49820;SDS011;36893;52.520;13.450;2023-02-28T21:11:29;30.08;;;9.25;;
49820;SDS011;36893;52.520;13.450;2023-02-28T21:21:36;31.42;;;10.07;;
49820;SDS011;36893;52.520;13.450;2023-02-28T21:31:42;20.92;;;7.60;;
49820;SDS011;36893;52.520;13.450;2023-02-28T21:41:43;21.23;;;7.60;;
49820;SDS011;36893;52.520;13.450;2023-02-28T21:51:44;27.27;;;9.10;;
49820;SDS011;36893;52.520;13.450;2023-02-28T22:01:45;27.65;;;7.15;;
49820;SDS011;36893;52.520;13.450;2023-02-28T22:11:49;23.17;;;5.93;;
49820;SDS011;36893;52.520;13.450;2023-02-28T22:21:50;19.10;;;7.25;;
49820;SDS011;36893;52.520;13.450;2023-02-28T22:31:52;15.35;;;4.88;;
49820;SDS011;36893;52.520;13.450;2023-02-28T22:41:53;18.27;;;6.20;;
49820;SDS011;36893;52.520;13.450;2023-02-28T22:51:55;18.27;;;5.38;;
49820;SDS011;36893;52.520;13.450;2023-02-28T23:01:55;15.77;;;5.30;;
49820;SDS011;36893;52.520;13.450;2023-02-28T23:11:56;13.20;;;5.27;;
49820;SDS011;36893;52.520;13.450;2023-02-28T23:21:57;15.63;;;4.47;;
49820;SDS011;36893;52.520;13.450;2023-02-28T23:31:59;12.45;;;5.60;;
49820;SDS011;36893;52.520;13.450;2023-02-28T23:42:00;11.40;;;3.93;;
49820;SDS011;36893;52.520;13.450;2023-02-28T23:52:01;9.57;;;3.30;;
